createdAt,value
2018-08-22T00:01:43.111Z,1.42
2018-08-22T00:04:41.157Z,1.50
2018-08-22T00:07:39.189Z,1.62
2018-08-22T00:10:37.408Z,1.30
2018-08-22T00:13:35.104Z,1.75
2018-08-22T00:16:33.309Z,1.87
2018-08-22T00:19:32.206Z,1.40
2018-08-22T00:22:31.513Z,1.67
2018-08-22T00:25:29.558Z,1.42
2018-08-22T00:28:27.869Z,1.55
2018-08-22T00:31:26.338Z,1.85
2018-08-22T00:34:24.440Z,1.77
2018-08-22T00:37:22.712Z,1.40
2018-08-22T00:40:21.856Z,1.40
2018-08-22T00:43:21.002Z,1.20
2018-08-22T00:46:19.140Z,1.35
2018-08-22T00:49:17.261Z,1.22
2018-08-22T00:52:16.349Z,1.52
2018-08-22T00:55:14.473Z,1.25
2018-08-22T00:58:13.962Z,1.50
2018-08-22T01:01:11.998Z,1.32
2018-08-22T01:04:10.244Z,1.32
2018-08-22T01:07:08.364Z,1.22
2018-08-22T01:10:06.500Z,1.57
2018-08-22T01:13:04.565Z,1.47
2018-08-22T01:16:02.737Z,1.80
2018-08-22T01:19:01.686Z,1.27
2018-08-22T01:21:59.962Z,1.62
2018-08-22T01:24:57.975Z,1.90
2018-08-22T01:27:57.605Z,1.00
2018-08-22T01:30:55.511Z,1.35
2018-08-22T01:33:54.305Z,1.50
2018-08-22T01:36:52.219Z,1.45
2018-08-22T01:39:51.632Z,1.37
2018-08-22T01:42:50.233Z,1.25
2018-08-22T01:45:48.532Z,1.50
2018-08-22T01:48:47.259Z,1.10
2018-08-22T01:51:45.496Z,1.10
2018-08-22T01:54:43.430Z,1.32
2018-08-22T01:57:42.654Z,1.45
2018-08-22T02:00:40.595Z,1.00
2018-08-22T02:03:38.901Z,1.30
2018-08-22T02:06:37.053Z,1.57
2018-08-22T02:09:36.025Z,0.98
2018-08-22T02:12:35.381Z,1.22
2018-08-22T02:15:33.446Z,1.55
2018-08-22T02:18:31.612Z,1.15
2018-08-22T02:21:29.959Z,1.52
2018-08-22T02:24:29.110Z,0.98
2018-08-22T02:27:27.356Z,1.12
2018-08-22T02:30:25.346Z,1.17
2018-08-22T02:33:23.381Z,1.20
2018-08-22T02:36:21.618Z,1.00
2018-08-22T02:39:21.797Z,1.20
2018-08-22T02:42:20.825Z,1.02
2018-08-22T02:45:18.826Z,1.15
2018-08-22T02:48:16.851Z,1.00
2018-08-22T02:51:15.184Z,1.00
2018-08-22T02:54:14.285Z,1.10
2018-08-22T02:57:12.296Z,1.20
2018-08-22T03:00:11.643Z,1.35
2018-08-22T03:03:09.996Z,1.10
2018-08-22T03:06:08.625Z,1.15
2018-08-22T03:09:06.748Z,1.22
2018-08-22T03:12:04.874Z,1.30
2018-08-22T03:15:03.014Z,1.10
2018-08-22T03:18:01.963Z,0.90
2018-08-22T03:21:01.420Z,1.00
2018-08-22T03:23:59.950Z,1.02
2018-08-22T03:26:58.014Z,0.90
2018-08-22T03:29:57.195Z,1.00
2018-08-22T03:32:56.730Z,0.98
2018-08-22T03:35:56.523Z,1.07
2018-08-22T03:38:55.788Z,1.20
2018-08-22T03:41:54.664Z,1.12
2018-08-22T03:44:54.229Z,1.17
2018-08-22T03:47:52.996Z,1.20
2018-08-22T03:50:52.053Z,1.10
2018-08-22T03:53:50.489Z,1.35
2018-08-22T03:56:49.817Z,0.90
2018-08-22T03:59:47.628Z,1.15
2018-08-22T04:02:46.165Z,1.10
2018-08-22T04:05:45.871Z,0.90
2018-08-22T04:08:44.133Z,1.22
2018-08-22T04:11:42.495Z,1.20
2018-08-22T04:14:41.848Z,0.85
2018-08-22T04:17:44.757Z,1.00
2018-08-22T04:20:44.194Z,1.10
2018-08-22T04:23:44.011Z,1.10
2018-08-22T04:26:43.317Z,1.32
2018-08-22T04:29:41.260Z,1.30
2018-08-22T04:32:39.862Z,1.10
2018-08-22T04:35:39.286Z,1.05
2018-08-22T04:38:38.544Z,1.00
2018-08-22T04:41:36.237Z,1.12
2018-08-22T04:44:34.869Z,1.65
2018-08-22T04:47:34.416Z,1.20
2018-08-22T04:50:32.414Z,1.30
2018-08-22T04:53:31.473Z,1.40
2018-08-22T04:56:29.916Z,1.17
2018-08-22T04:59:28.693Z,0.90
2018-08-22T05:02:27.461Z,1.07
2018-08-22T05:05:25.677Z,1.10
2018-08-22T05:08:23.951Z,1.00
2018-08-22T05:11:21.984Z,1.32
2018-08-22T05:14:21.445Z,0.90
2018-08-22T05:17:20.116Z,1.07
2018-08-22T05:20:18.401Z,1.40
2018-08-22T05:23:17.660Z,1.10
2018-08-22T05:26:16.186Z,1.20
2018-08-22T05:29:14.242Z,0.90
2018-08-22T05:32:12.234Z,1.10
2018-08-22T05:35:10.484Z,1.55
2018-08-22T05:38:09.706Z,1.27
2018-08-22T05:41:08.838Z,1.40
2018-08-22T05:44:07.314Z,1.95
2018-08-22T05:47:05.305Z,1.42
2018-08-22T05:50:03.849Z,1.40
2018-08-22T05:53:01.588Z,1.27
2018-08-22T05:56:01.373Z,1.42
2018-08-22T05:58:59.231Z,1.32
2018-08-22T06:01:57.930Z,1.42
2018-08-22T06:04:57.639Z,1.20
2018-08-22T06:07:56.750Z,1.17
2018-08-22T06:10:55.824Z,1.47
2018-08-22T06:13:54.355Z,1.40
2018-08-22T06:16:52.318Z,1.30
2018-08-22T06:19:50.430Z,1.30
2018-08-22T06:22:48.556Z,1.20
2018-08-22T06:25:47.971Z,1.20
2018-08-22T06:28:46.875Z,1.37
2018-08-22T06:31:45.982Z,1.40
2018-08-22T06:34:45.114Z,1.95
2018-08-22T06:37:43.447Z,1.52
2018-08-22T06:40:41.321Z,1.55
2018-08-22T06:43:40.714Z,1.80
2018-08-22T06:46:39.593Z,2.42
2018-08-22T06:49:37.707Z,3.12
2018-08-22T06:52:35.473Z,2.45
2018-08-22T06:55:33.721Z,3.40
2018-08-22T06:58:31.752Z,2.58
2018-08-22T07:01:30.076Z,2.67
2018-08-22T07:04:28.082Z,2.30
2018-08-22T07:07:26.345Z,3.12
2018-08-22T07:10:25.044Z,2.77
2018-08-22T07:13:23.909Z,2.70
2018-08-22T07:16:23.304Z,2.37
2018-08-22T07:19:22.101Z,2.40
2018-08-22T07:22:20.505Z,1.62
2018-08-22T07:25:19.161Z,2.58
2018-08-22T07:28:17.173Z,2.15
2018-08-22T07:31:15.333Z,1.95
2018-08-22T07:34:13.234Z,1.77
2018-08-22T07:37:11.200Z,1.80
2018-08-22T07:40:09.202Z,2.12
2018-08-22T07:43:07.536Z,2.02
2018-08-22T07:46:05.454Z,2.60
2018-08-22T07:49:03.564Z,1.80
2018-08-22T07:52:01.324Z,2.17
2018-08-22T07:54:59.730Z,2.02
2018-08-22T07:57:57.648Z,2.15
2018-08-22T08:00:56.032Z,1.60
2018-08-22T08:03:54.856Z,1.87
2018-08-22T08:06:52.894Z,1.37
2018-08-22T08:09:50.718Z,1.40
2018-08-22T08:12:48.959Z,1.45
2018-08-22T08:15:46.743Z,1.40
2018-08-22T08:18:45.272Z,1.30
2018-08-22T08:21:44.815Z,1.50
2018-08-22T08:24:43.438Z,1.30
2018-08-22T08:27:41.678Z,1.40
2018-08-22T08:30:40.500Z,1.07
2018-08-22T08:33:38.561Z,1.10
2018-08-22T08:36:37.538Z,1.00
2018-08-22T08:39:35.292Z,1.20
2018-08-22T08:42:33.561Z,1.40
2018-08-22T08:45:31.639Z,1.40
2018-08-22T08:48:30.008Z,1.50
2018-08-22T08:51:28.957Z,0.80
2018-08-22T08:54:27.075Z,0.78
2018-08-22T08:57:25.201Z,1.12
2018-08-22T09:00:23.399Z,1.07
2018-08-22T09:03:21.039Z,1.17
2018-08-22T09:06:19.299Z,0.95
2018-08-22T09:09:18.745Z,0.90
2018-08-22T09:12:16.994Z,0.90
2018-08-22T09:15:16.006Z,0.75
2018-08-22T09:18:14.269Z,0.95
2018-08-22T09:21:12.209Z,0.78
2018-08-22T09:24:11.474Z,0.80
2018-08-22T09:27:09.464Z,1.00
2018-08-22T09:30:07.323Z,0.65
2018-08-22T09:33:05.821Z,0.80
2018-08-22T09:36:04.454Z,0.85
2018-08-22T09:39:02.566Z,1.20
2018-08-22T09:42:01.002Z,1.05
2018-08-22T09:44:59.459Z,1.00
2018-08-22T09:47:58.151Z,0.95
2018-08-22T09:50:56.261Z,0.80
2018-08-22T09:53:55.326Z,0.55
2018-08-22T09:56:53.392Z,1.00
2018-08-22T09:59:51.869Z,0.70
2018-08-22T10:02:49.861Z,0.78
2018-08-22T10:05:49.085Z,0.90
2018-08-22T10:08:46.911Z,0.80
2018-08-22T10:11:45.325Z,0.90
2018-08-22T10:14:43.327Z,1.00
2018-08-22T10:17:41.313Z,0.93
2018-08-22T10:20:39.345Z,0.90
2018-08-22T10:23:37.754Z,1.10
2018-08-22T10:26:36.565Z,0.98
2018-08-22T10:29:35.773Z,0.93
2018-08-22T10:32:33.983Z,1.02
2018-08-22T10:35:31.938Z,0.80
2018-08-22T10:38:29.845Z,1.12
2018-08-22T10:41:28.290Z,0.90
2018-08-22T10:44:26.723Z,1.05
2018-08-22T10:47:25.213Z,1.20
2018-08-22T10:50:23.774Z,0.85
2018-08-22T10:53:22.372Z,0.80
2018-08-22T10:56:20.746Z,0.82
2018-08-22T10:59:20.418Z,0.98
2018-08-22T11:02:19.363Z,0.95
2018-08-22T11:05:18.593Z,1.02
2018-08-22T11:08:16.448Z,1.02
2018-08-22T11:11:14.512Z,1.22
2018-08-22T11:14:12.692Z,0.95
2018-08-22T11:17:10.969Z,1.00
2018-08-22T11:20:09.980Z,0.80
2018-08-22T11:23:21.054Z,0.90
2018-08-22T11:26:31.185Z,1.00
2018-08-22T11:29:42.263Z,1.02
2018-08-22T11:32:52.318Z,1.10
2018-08-22T11:35:50.085Z,0.80
2018-08-22T11:38:48.025Z,0.90
2018-08-22T11:41:46.184Z,0.90
2018-08-22T11:44:44.195Z,0.93
2018-08-22T11:47:42.308Z,0.90
2018-08-22T11:50:40.278Z,0.90
2018-08-22T11:53:38.734Z,0.88
2018-08-22T11:56:37.046Z,0.65
2018-08-22T11:59:35.714Z,0.85
2018-08-22T12:02:34.819Z,0.70
2018-08-22T12:05:33.593Z,0.68
2018-08-22T12:08:31.935Z,0.90
2018-08-22T12:11:30.245Z,0.60
2018-08-22T12:14:28.487Z,0.85
2018-08-22T12:17:27.070Z,0.90
2018-08-22T12:20:25.765Z,1.00
2018-08-22T12:23:24.052Z,0.82
2018-08-22T12:26:22.297Z,0.70
2018-08-22T12:29:20.501Z,0.90
2018-08-22T12:32:18.868Z,1.00
2018-08-22T12:35:17.539Z,1.00
2018-08-22T12:38:15.369Z,1.05
2018-08-22T12:41:13.598Z,0.90
2018-08-22T12:44:11.500Z,0.75
2018-08-22T12:47:09.523Z,0.85
2018-08-22T12:50:07.549Z,0.75
2018-08-22T12:53:06.610Z,0.80
2018-08-22T12:56:04.828Z,0.80
2018-08-22T12:59:03.183Z,0.90
2018-08-22T13:02:01.917Z,0.62
2018-08-22T13:05:00.355Z,1.15
2018-08-22T13:07:58.924Z,0.60
2018-08-22T13:10:57.019Z,0.85
2018-08-22T13:13:56.233Z,0.85
2018-08-22T13:16:54.787Z,1.00
2018-08-22T13:19:53.210Z,0.60
2018-08-22T13:22:52.181Z,0.70
2018-08-22T13:25:50.801Z,0.85
2018-08-22T13:28:50.277Z,0.80
2018-08-22T13:31:48.170Z,0.80
2018-08-22T13:34:47.454Z,0.80
2018-08-22T13:37:45.487Z,0.93
2018-08-22T13:40:44.422Z,0.57
2018-08-22T13:43:42.422Z,0.98
2018-08-22T13:46:41.816Z,0.90
2018-08-22T13:49:40.648Z,0.80
2018-08-22T13:52:39.913Z,1.00
2018-08-22T13:55:39.018Z,0.80
2018-08-22T13:58:38.048Z,0.50
2018-08-22T14:01:36.434Z,0.78
2018-08-22T14:04:34.723Z,0.90
2018-08-22T14:07:33.490Z,0.60
2018-08-22T14:10:31.754Z,0.62
2018-08-22T14:13:29.690Z,0.70
2018-08-22T14:16:27.856Z,0.72
2018-08-22T14:19:26.149Z,0.75
2018-08-22T14:22:24.921Z,0.90
2018-08-22T14:25:24.445Z,0.80
2018-08-22T14:28:23.518Z,0.88
2018-08-22T14:31:21.777Z,0.78
2018-08-22T14:34:20.265Z,0.90
2018-08-22T14:37:19.395Z,0.75
2018-08-22T14:40:17.415Z,0.60
2018-08-22T14:43:16.486Z,0.75
2018-08-22T14:46:15.140Z,0.78
2018-08-22T14:49:13.027Z,0.60
2018-08-22T14:52:12.484Z,0.65
2018-08-22T14:55:10.765Z,0.85
2018-08-22T14:58:09.018Z,0.78
2018-08-22T15:01:07.278Z,0.80
2018-08-22T15:04:05.291Z,0.82
2018-08-22T15:07:03.419Z,0.65
2018-08-22T15:10:01.456Z,0.65
2018-08-22T15:12:59.610Z,0.95
2018-08-22T15:15:57.722Z,0.68
2018-08-22T15:18:55.606Z,0.72
2018-08-22T15:21:53.668Z,0.75
2018-08-22T15:24:51.561Z,0.93
2018-08-22T15:27:50.025Z,0.80
2018-08-22T15:30:48.378Z,0.80
2018-08-22T15:33:47.092Z,0.90
2018-08-22T15:36:46.693Z,1.05
2018-08-22T15:39:45.498Z,0.70
2018-08-22T15:42:44.006Z,0.80
2018-08-22T15:45:42.841Z,0.50
2018-08-22T15:48:41.300Z,0.75
2018-08-22T15:51:39.614Z,1.10
2018-08-22T15:54:38.068Z,0.90
2018-08-22T15:57:37.395Z,1.00
2018-08-22T16:00:44.363Z,0.68
2018-08-22T16:03:42.905Z,0.90
2018-08-22T16:06:41.988Z,0.90
2018-08-22T16:09:41.094Z,0.95
2018-08-22T16:12:39.274Z,1.07
2018-08-22T16:15:37.505Z,0.70
2018-08-22T16:18:35.341Z,1.17
2018-08-22T16:21:34.329Z,0.85
2018-08-22T16:24:32.363Z,0.80
2018-08-22T16:27:31.495Z,1.00
2018-08-22T16:30:29.542Z,1.17
2018-08-22T16:33:27.800Z,1.22
2018-08-22T16:36:31.497Z,1.00
2018-08-22T16:39:39.942Z,1.25
2018-08-22T16:42:46.598Z,1.37
2018-08-22T16:45:48.977Z,1.15
2018-08-22T16:48:48.535Z,1.27
2018-08-22T16:51:47.204Z,1.85
2018-08-22T16:54:46.189Z,1.55
2018-08-22T16:57:44.602Z,1.00
2018-08-22T17:00:55.905Z,1.40
2018-08-22T17:03:54.165Z,1.52
2018-08-22T17:06:53.291Z,1.40
2018-08-22T17:09:51.676Z,1.60
2018-08-22T17:12:55.733Z,2.45
2018-08-22T17:15:53.901Z,3.12
2018-08-22T17:18:51.826Z,2.90
2018-08-22T17:21:51.138Z,2.92
2018-08-22T17:24:49.692Z,2.87
2018-08-22T17:27:49.172Z,2.67
2018-08-22T17:30:53.042Z,3.55
2018-08-22T17:33:55.507Z,3.35
2018-08-22T17:36:54.271Z,3.62
2018-08-22T17:39:52.348Z,4.40
2018-08-22T17:42:50.647Z,4.03
2018-08-22T17:45:57.447Z,4.03
2018-08-22T17:48:55.603Z,4.10
2018-08-22T17:52:01.911Z,3.90
2018-08-22T17:55:00.036Z,4.62
2018-08-22T17:57:58.442Z,4.65
2018-08-22T18:00:56.523Z,4.83
2018-08-22T18:03:55.727Z,4.05
2018-08-22T18:06:53.732Z,4.55
2018-08-22T18:09:53.107Z,4.87
2018-08-22T18:12:51.343Z,4.70
2018-08-22T18:15:51.136Z,5.17
2018-08-22T18:18:49.196Z,4.40
2018-08-22T18:21:54.442Z,4.33
2018-08-22T18:24:58.825Z,3.90
2018-08-22T18:28:02.920Z,4.00
2018-08-22T18:31:00.699Z,4.97
2018-08-22T18:34:10.939Z,4.65
2018-08-22T18:37:08.995Z,3.80
2018-08-22T18:40:14.652Z,3.90
2018-08-22T18:43:17.148Z,4.05
2018-08-22T18:46:21.549Z,3.87
2018-08-22T18:49:20.602Z,4.03
2018-08-22T18:52:18.687Z,3.75
2018-08-22T18:55:16.663Z,3.65
2018-08-22T18:58:14.705Z,3.65
2018-08-22T19:01:13.673Z,3.20
2018-08-22T19:04:12.029Z,2.90
2018-08-22T19:07:09.676Z,3.15
2018-08-22T19:10:07.627Z,3.17
2018-08-22T19:13:12.582Z,3.52
2018-08-22T19:16:17.212Z,3.52
2018-08-22T19:19:15.110Z,2.95
2018-08-22T19:22:13.344Z,3.37
2018-08-22T19:25:18.607Z,3.12
2018-08-22T19:28:17.204Z,2.83
2018-08-22T19:31:15.408Z,3.33
2018-08-22T19:34:14.548Z,2.85
2018-08-22T19:37:12.993Z,2.90
2018-08-22T19:40:20.357Z,2.87
2018-08-22T19:43:18.818Z,2.95
2018-08-22T19:46:17.164Z,3.10
2018-08-22T19:49:15.538Z,2.75
2018-08-22T19:52:14.038Z,3.15
2018-08-22T19:55:12.290Z,2.80
2018-08-22T19:58:11.606Z,2.60
2018-08-22T20:01:10.720Z,3.25
2018-08-22T20:04:10.127Z,3.30
2018-08-22T20:07:08.211Z,3.33
2018-08-22T20:10:09.460Z,3.15
2018-08-22T20:13:09.649Z,3.20
2018-08-22T20:16:14.805Z,3.75
2018-08-22T20:19:20.732Z,3.40
2018-08-22T20:22:19.022Z,3.40
2018-08-22T20:25:19.354Z,3.00
2018-08-22T20:28:17.261Z,3.15
2018-08-22T20:31:19.554Z,3.45
2018-08-22T20:34:23.718Z,3.02
2018-08-22T20:37:22.019Z,3.33
2018-08-22T20:40:20.209Z,3.35
2018-08-22T20:43:23.202Z,4.20
2018-08-22T20:46:21.797Z,4.95
2018-08-22T20:49:19.920Z,3.65
2018-08-22T20:52:18.216Z,3.85
2018-08-22T20:55:17.218Z,3.17
2018-08-22T20:58:16.477Z,4.37
2018-08-22T21:01:14.501Z,4.37
2018-08-22T21:04:13.986Z,3.98
2018-08-22T21:07:13.100Z,3.75
2018-08-22T21:10:11.381Z,4.22
2018-08-22T21:13:09.593Z,4.25
2018-08-22T21:16:07.868Z,3.92
2018-08-22T21:19:06.118Z,3.72
2018-08-22T21:22:04.473Z,3.27
2018-08-22T21:25:04.506Z,4.28
2018-08-22T21:28:02.870Z,3.67
2018-08-22T21:31:07.915Z,3.47
2018-08-22T21:34:07.384Z,3.58
2018-08-22T21:37:07.481Z,3.98
2018-08-22T21:40:06.038Z,3.22
2018-08-22T21:43:07.117Z,2.92
2018-08-22T21:46:06.052Z,3.35
2018-08-22T21:49:08.290Z,2.72
2018-08-22T21:52:07.554Z,3.22
2018-08-22T21:55:05.591Z,2.75
2018-08-22T21:58:04.080Z,2.85
2018-08-22T22:01:02.041Z,3.10
2018-08-22T22:04:00.262Z,3.25
2018-08-22T22:06:59.511Z,3.12
2018-08-22T22:09:58.958Z,2.83
2018-08-22T22:12:58.571Z,2.90
2018-08-22T22:15:58.241Z,2.37
2018-08-22T22:18:57.428Z,2.35
2018-08-22T22:21:55.449Z,2.75
2018-08-22T22:25:03.772Z,2.60
2018-08-22T22:28:02.059Z,2.70
2018-08-22T22:31:00.158Z,2.42
2018-08-22T22:34:05.456Z,2.47
2018-08-22T22:37:03.714Z,2.72
2018-08-22T22:40:06.159Z,2.60
2018-08-22T22:43:05.818Z,2.30
2018-08-22T22:46:04.117Z,2.40
2018-08-22T22:49:03.282Z,2.20
2018-08-22T22:52:03.657Z,2.25
2018-08-22T22:55:06.797Z,1.80
2018-08-22T22:58:05.643Z,2.17
2018-08-22T23:01:03.667Z,2.37
2018-08-22T23:04:04.033Z,2.25
2018-08-22T23:07:01.870Z,2.45
2018-08-22T23:10:12.563Z,2.60
2018-08-22T23:13:12.062Z,1.70
2018-08-22T23:16:11.685Z,2.12
2018-08-22T23:19:09.887Z,1.77
2018-08-22T23:22:08.878Z,1.70
2018-08-22T23:25:08.047Z,1.92
2018-08-22T23:28:07.430Z,1.95
2018-08-22T23:31:05.321Z,2.12
2018-08-22T23:34:04.447Z,1.80
2018-08-22T23:37:02.723Z,2.02
2018-08-22T23:40:02.298Z,2.17
2018-08-22T23:43:01.697Z,2.22
2018-08-22T23:46:04.011Z,1.92
2018-08-22T23:49:08.206Z,1.75
2018-08-22T23:52:08.286Z,1.70
2018-08-22T23:55:07.639Z,1.65
2018-08-22T23:58:07.029Z,1.77
